createdAt,value
2022-12-31T00:00:23.912Z,100620.44
2022-12-31T00:02:54.520Z,100632.88
2022-12-31T00:05:25.204Z,100622.06
2022-12-31T00:07:57.442Z,100632.09
2022-12-31T00:10:27.968Z,100612.63
2022-12-31T00:13:14.940Z,100638.81
2022-12-31T00:15:46.227Z,100614.78
2022-12-31T00:18:18.998Z,100628.34
2022-12-31T00:20:49.491Z,100620.75
2022-12-31T00:23:21.620Z,100622.34
2022-12-31T00:25:52.188Z,100618.09
2022-12-31T00:28:22.843Z,100521.19
2022-12-31T00:30:57.193Z,100609.91
2022-12-31T00:33:44.412Z,100617.69
2022-12-31T00:36:17.025Z,100498.22
2022-12-31T00:38:50.594Z,100595.63
2022-12-31T00:41:23.198Z,100605.84
2022-12-31T00:43:54.123Z,100596.19
2022-12-31T00:46:25.913Z,100596.69
2022-12-31T00:49:13.757Z,100537.06
2022-12-31T00:52:01.289Z,100569.72
2022-12-31T00:54:33.625Z,100567.47
2022-12-31T00:57:04.307Z,100553.97
2022-12-31T00:59:34.928Z,100555.56
2022-12-31T01:02:05.664Z,100542.94
2022-12-31T01:04:40.777Z,100550.47
2022-12-31T01:07:11.513Z,100536.53
2022-12-31T01:09:46.715Z,100529.59
2022-12-31T01:12:23.341Z,100515.97
2022-12-31T01:14:55.726Z,100533.28
2022-12-31T01:17:26.327Z,100488.44
2022-12-31T01:19:59.905Z,100530.81
2022-12-31T01:22:30.357Z,100517.50
2022-12-31T01:25:05.117Z,100471.78
2022-12-31T01:27:35.729Z,100511.84
2022-12-31T01:30:06.953Z,100512.16
2022-12-31T01:32:37.489Z,100503.75
2022-12-31T01:35:08.736Z,100503.91
2022-12-31T01:37:56.013Z,100504.50
2022-12-31T01:40:28.295Z,100484.88
2022-12-31T01:42:58.879Z,100494.38
2022-12-31T01:45:30.014Z,100474.44
2022-12-31T01:48:02.613Z,100489.59
2022-12-31T01:50:36.625Z,100486.69
2022-12-31T01:53:10.199Z,100503.31
2022-12-31T01:55:51.048Z,100459.00
2022-12-31T01:58:25.879Z,100499.53
2022-12-31T02:01:20.192Z,100485.56
2022-12-31T02:04:08.677Z,100460.78
2022-12-31T02:06:43.588Z,100484.63
2022-12-31T02:09:16.871Z,100481.72
2022-12-31T02:11:49.081Z,100459.84
2022-12-31T02:14:23.679Z,100459.31
2022-12-31T02:16:59.362Z,100463.69
2022-12-31T02:19:53.780Z,100436.53
2022-12-31T02:22:39.598Z,100447.66
2022-12-31T02:25:37.599Z,100404.63
2022-12-31T02:28:22.737Z,100441.81
2022-12-31T02:31:16.872Z,100418.22
2022-12-31T02:33:54.576Z,100413.78
2022-12-31T02:36:30.586Z,100337.94
2022-12-31T02:39:05.706Z,100396.44
2022-12-31T02:41:55.356Z,100387.81
2022-12-31T02:44:35.056Z,100369.50
2022-12-31T02:47:23.243Z,100374.84
2022-12-31T02:50:21.364Z,100380.72
2022-12-31T02:53:02.793Z,100367.44
2022-12-31T02:55:42.845Z,100369.78
2022-12-31T02:58:16.371Z,100360.09
2022-12-31T03:01:15.017Z,100361.25
2022-12-31T03:04:10.041Z,100365.72
2022-12-31T03:06:44.883Z,100374.66
2022-12-31T03:09:18.424Z,100293.03
2022-12-31T03:12:10.023Z,100223.03
2022-12-31T03:14:45.626Z,100349.59
2022-12-31T03:17:17.731Z,100361.03
2022-12-31T03:20:26.442Z,100340.09
2022-12-31T03:22:57.346Z,100345.03
2022-12-31T03:25:41.854Z,100350.34
2022-12-31T03:28:13.664Z,100349.69
2022-12-31T03:30:46.252Z,100340.09
2022-12-31T03:33:17.326Z,100307.31
2022-12-31T03:35:54.948Z,100348.81
2022-12-31T03:38:25.933Z,100342.66
2022-12-31T03:40:57.162Z,100331.75
2022-12-31T03:43:28.288Z,100337.81
2022-12-31T03:46:00.651Z,100334.19
2022-12-31T03:48:31.835Z,100328.94
2022-12-31T03:51:07.212Z,100330.91
2022-12-31T03:53:38.461Z,100325.97
2022-12-31T03:56:09.521Z,100326.84
2022-12-31T03:58:40.414Z,100324.41
2022-12-31T04:01:11.323Z,100304.41
2022-12-31T04:03:42.297Z,100267.94
2022-12-31T04:06:15.736Z,100315.22
2022-12-31T04:08:46.391Z,100304.16
2022-12-31T04:11:20.835Z,100302.63
2022-12-31T04:13:51.669Z,100304.00
2022-12-31T04:16:22.741Z,100308.41
2022-12-31T04:18:53.293Z,100301.34
2022-12-31T04:21:30.095Z,100289.47
2022-12-31T04:24:04.056Z,100296.72
2022-12-31T04:26:34.679Z,100292.63
2022-12-31T04:29:05.257Z,100290.72
2022-12-31T04:31:35.813Z,100300.50
2022-12-31T04:34:23.413Z,100281.28
2022-12-31T04:37:12.113Z,100298.63
2022-12-31T04:39:42.640Z,100274.78
2022-12-31T04:42:13.339Z,100282.69
2022-12-31T04:44:44.422Z,100285.66
2022-12-31T04:47:18.767Z,100287.81
2022-12-31T04:49:53.900Z,100288.84
2022-12-31T04:52:26.200Z,100283.63
2022-12-31T04:54:59.375Z,100273.41
2022-12-31T04:57:29.987Z,100298.13
2022-12-31T05:00:00.573Z,100281.06
2022-12-31T05:02:33.715Z,100293.97
2022-12-31T05:05:04.452Z,100265.38
2022-12-31T05:07:54.456Z,100259.56
2022-12-31T05:10:25.570Z,100212.06
2022-12-31T05:13:15.309Z,100287.38
2022-12-31T05:15:46.058Z,100265.72
2022-12-31T05:18:17.238Z,100262.22
2022-12-31T05:20:48.174Z,100289.28
2022-12-31T05:23:21.097Z,100277.44
2022-12-31T05:25:51.883Z,100267.19
2022-12-31T05:28:22.791Z,100275.94
2022-12-31T05:31:11.285Z,100221.28
2022-12-31T05:33:41.909Z,100270.28
2022-12-31T05:36:29.187Z,100268.22
2022-12-31T05:39:01.775Z,100288.38
2022-12-31T05:41:32.247Z,100261.03
2022-12-31T05:44:02.795Z,100277.25
2022-12-31T05:46:33.487Z,100276.50
2022-12-31T05:49:04.172Z,100283.34
2022-12-31T05:51:34.949Z,100278.03
2022-12-31T05:54:07.544Z,100278.03
2022-12-31T05:56:38.165Z,100277.00
2022-12-31T05:59:09.067Z,100268.22
2022-12-31T06:01:39.700Z,100248.59
2022-12-31T06:04:10.144Z,100273.25
2022-12-31T06:06:40.824Z,100253.84
2022-12-31T06:09:29.849Z,100260.72
2022-12-31T06:12:00.446Z,100253.63
2022-12-31T06:14:30.920Z,100267.25
2022-12-31T06:17:01.762Z,100265.59
2022-12-31T06:19:32.955Z,100195.28
2022-12-31T06:22:03.595Z,100267.34
2022-12-31T06:24:35.864Z,100270.72
2022-12-31T06:27:06.385Z,100258.38
2022-12-31T06:29:37.212Z,100265.06
2022-12-31T06:32:13.171Z,100268.59
2022-12-31T06:34:45.693Z,100263.28
2022-12-31T06:37:16.321Z,100264.06
2022-12-31T06:39:48.551Z,100269.13
2022-12-31T06:42:19.133Z,100233.38
2022-12-31T06:44:49.760Z,100261.22
2022-12-31T06:47:20.339Z,100258.16
2022-12-31T06:49:51.026Z,100263.06
2022-12-31T06:52:22.006Z,100255.09
2022-12-31T06:54:55.080Z,100243.50
2022-12-31T06:57:26.172Z,100258.19
2022-12-31T06:59:57.363Z,100214.34
2022-12-31T07:02:41.405Z,100244.94
2022-12-31T07:05:40.111Z,100237.94
2022-12-31T07:08:39.823Z,100221.31
2022-12-31T07:11:21.571Z,100242.50
2022-12-31T07:14:06.883Z,100192.06
2022-12-31T07:16:52.872Z,100164.84
2022-12-31T07:19:36.731Z,100245.88
2022-12-31T07:22:08.243Z,100223.06
2022-12-31T07:24:42.307Z,100235.66
2022-12-31T07:27:43.714Z,100235.09
2022-12-31T07:30:18.131Z,100191.25
2022-12-31T07:33:29.553Z,100228.81
2022-12-31T07:39:08.419Z,100229.22
2022-12-31T07:41:51.389Z,100106.16
2022-12-31T07:44:37.730Z,100191.81
2022-12-31T07:47:16.899Z,100220.25
2022-12-31T07:49:48.161Z,100197.53
2022-12-31T07:52:37.228Z,100138.09
2022-12-31T07:55:08.513Z,100215.88
2022-12-31T07:57:46.089Z,100221.56
2022-12-31T08:00:21.773Z,100189.59
2022-12-31T08:03:31.403Z,100229.94
2022-12-31T08:06:29.528Z,100195.13
2022-12-31T08:09:09.547Z,100222.91
2022-12-31T08:12:03.981Z,100217.28
2022-12-31T08:14:36.966Z,100207.06
2022-12-31T08:17:14.587Z,100219.28
2022-12-31T08:19:46.615Z,100234.41
2022-12-31T08:22:59.253Z,100214.06
2022-12-31T08:25:39.764Z,100204.06
2022-12-31T08:28:34.401Z,100138.91
2022-12-31T08:31:10.038Z,100131.34
2022-12-31T08:33:51.518Z,100206.22
2022-12-31T08:36:49.167Z,100212.94
2022-12-31T08:39:33.760Z,100207.69
2022-12-31T08:42:07.758Z,100209.31
2022-12-31T08:44:50.653Z,100172.66
2022-12-31T08:47:38.267Z,100197.09
2022-12-31T08:50:17.431Z,100095.09
2022-12-31T08:52:49.052Z,100207.69
2022-12-31T08:55:38.686Z,100199.25
2022-12-31T08:58:25.114Z,100200.13
2022-12-31T09:00:59.920Z,100194.03
2022-12-31T09:03:44.833Z,100199.91
2022-12-31T09:06:30.359Z,100196.50
2022-12-31T09:09:24.507Z,100158.72
2022-12-31T09:12:01.570Z,100190.91
2022-12-31T09:14:53.786Z,100192.16
2022-12-31T09:17:49.355Z,100194.94
2022-12-31T09:20:43.842Z,100184.56
2022-12-31T09:23:18.520Z,100176.53
2022-12-31T09:25:58.222Z,100189.69
2022-12-31T09:28:43.704Z,100161.66
2022-12-31T09:31:19.135Z,100183.13
2022-12-31T09:33:57.150Z,100131.88
2022-12-31T09:36:34.763Z,100193.88
2022-12-31T09:39:16.527Z,100168.69
2022-12-31T09:42:15.436Z,100168.81
2022-12-31T09:45:10.028Z,100164.38
2022-12-31T09:48:14.544Z,100160.22
2022-12-31T09:51:25.516Z,100146.53
2022-12-31T09:54:38.870Z,100067.97
2022-12-31T09:57:30.436Z,100048.66
2022-12-31T10:00:06.398Z,100146.00
2022-12-31T10:02:55.216Z,100147.75
2022-12-31T10:05:45.320Z,100134.50
2022-12-31T10:08:22.034Z,100136.91
2022-12-31T10:11:00.211Z,100121.78
2022-12-31T10:13:51.663Z,100109.06
2022-12-31T10:16:47.689Z,100131.38
2022-12-31T10:19:42.319Z,100087.09
2022-12-31T10:22:34.032Z,100010.56
2022-12-31T10:25:38.463Z,100062.06
2022-12-31T10:28:26.540Z,100118.06
2022-12-31T10:31:09.483Z,100079.66
2022-12-31T10:33:47.071Z,100067.97
2022-12-31T10:36:29.826Z,99964.56
2022-12-31T10:39:14.482Z,100098.53
2022-12-31T10:42:20.037Z,100107.00
2022-12-31T10:45:40.876Z,100105.66
2022-12-31T10:48:56.426Z,100098.97
2022-12-31T10:52:03.687Z,100078.69
2022-12-31T10:55:28.789Z,100107.66
2022-12-31T10:58:48.437Z,100112.06
2022-12-31T11:01:27.952Z,100095.66
2022-12-31T11:04:36.054Z,100098.25
2022-12-31T11:07:35.425Z,100100.28
2022-12-31T11:10:49.657Z,100084.22
2022-12-31T11:14:00.537Z,100096.00
2022-12-31T11:16:59.167Z,100097.22
2022-12-31T11:19:41.825Z,100093.44
2022-12-31T11:23:05.845Z,100092.38
2022-12-31T11:25:50.554Z,100088.47
2022-12-31T11:28:45.984Z,100061.06
2022-12-31T11:31:57.120Z,100013.91
2022-12-31T11:34:54.464Z,100077.09
2022-12-31T11:37:39.804Z,100095.78
2022-12-31T11:40:33.977Z,100068.63
2022-12-31T11:43:07.627Z,100055.00
2022-12-31T11:47:01.102Z,100038.22
2022-12-31T11:49:19.106Z,100042.41
2022-12-31T11:52:16.003Z,100061.94
2022-12-31T11:55:21.485Z,100024.03
2022-12-31T12:01:02.018Z,99982.22
2022-12-31T12:03:39.437Z,100061.03
2022-12-31T12:06:13.809Z,100071.59
2022-12-31T12:08:46.837Z,100062.34
2022-12-31T12:11:26.173Z,99944.84
2022-12-31T12:14:18.115Z,100042.25
2022-12-31T12:16:57.855Z,100055.75
2022-12-31T12:19:49.825Z,100054.41
2022-12-31T12:25:39.770Z,100049.81
2022-12-31T12:28:44.419Z,100028.31
2022-12-31T12:31:28.379Z,100028.63
2022-12-31T12:37:35.358Z,100013.38
2022-12-31T12:40:20.337Z,100015.97
2022-12-31T12:43:11.724Z,100003.53
2022-12-31T12:46:01.032Z,100007.97
2022-12-31T12:48:40.427Z,100008.91
2022-12-31T12:51:38.536Z,99951.19
2022-12-31T12:54:27.234Z,100002.72
2022-12-31T12:57:28.508Z,100010.13
2022-12-31T13:00:37.994Z,100004.69
2022-12-31T13:07:08.833Z,99944.31
2022-12-31T13:10:09.911Z,99958.81
2022-12-31T13:13:23.711Z,100003.25
2022-12-31T13:16:26.826Z,100001.19
2022-12-31T13:19:16.521Z,100005.00
2022-12-31T13:22:08.888Z,100015.66
2022-12-31T13:25:09.904Z,99997.28
2022-12-31T13:27:51.873Z,100009.03
2022-12-31T13:31:00.475Z,100010.59
2022-12-31T13:33:56.351Z,99956.56
2022-12-31T13:36:56.789Z,99871.00
2022-12-31T13:39:41.957Z,100000.97
2022-12-31T13:42:20.758Z,99996.81
2022-12-31T13:45:16.280Z,99998.44
2022-12-31T13:47:54.349Z,99981.63
2022-12-31T13:51:11.588Z,99980.19
2022-12-31T13:54:00.223Z,99972.25
2022-12-31T13:56:44.548Z,99977.66
2022-12-31T13:59:50.929Z,99979.22
2022-12-31T14:02:48.660Z,99953.69
2022-12-31T14:05:38.323Z,99960.34
2022-12-31T14:08:16.417Z,99961.03
2022-12-31T14:11:10.839Z,99934.97
2022-12-31T14:14:06.591Z,99952.66
2022-12-31T14:16:57.736Z,99954.31
2022-12-31T14:20:10.306Z,99946.75
2022-12-31T14:23:14.163Z,99951.06
2022-12-31T14:26:05.045Z,99951.13
2022-12-31T14:28:48.790Z,99946.28
2022-12-31T14:31:37.730Z,99948.50
2022-12-31T14:34:25.004Z,99938.19
2022-12-31T14:37:10.820Z,99940.59
2022-12-31T14:40:11.259Z,99935.66
2022-12-31T14:43:13.828Z,99939.63
2022-12-31T14:46:03.571Z,99930.78
2022-12-31T14:48:50.742Z,99931.88
2022-12-31T14:51:31.684Z,99938.53
2022-12-31T14:54:09.758Z,99932.97
2022-12-31T14:56:56.477Z,99929.00
2022-12-31T14:59:40.389Z,99889.56
2022-12-31T15:02:36.694Z,99921.41
2022-12-31T15:05:23.738Z,99929.31
2022-12-31T15:08:16.413Z,99910.31
2022-12-31T15:11:05.961Z,99921.56
2022-12-31T15:14:01.699Z,99904.28
2022-12-31T15:17:10.908Z,99868.97
2022-12-31T15:20:18.676Z,99901.44
2022-12-31T15:22:57.574Z,99902.75
2022-12-31T15:25:44.961Z,99908.00
2022-12-31T15:28:37.690Z,99893.09
2022-12-31T15:31:32.372Z,99895.28
2022-12-31T15:34:53.204Z,99894.06
2022-12-31T15:37:51.413Z,99887.63
2022-12-31T15:40:35.656Z,99891.72
2022-12-31T15:43:32.579Z,99883.97
2022-12-31T15:46:27.801Z,99903.50
2022-12-31T15:49:29.504Z,99874.50
2022-12-31T15:55:58.532Z,99874.16
2022-12-31T15:58:47.202Z,99873.28
2022-12-31T16:01:27.300Z,99878.16
2022-12-31T16:06:58.681Z,99857.00
2022-12-31T16:09:49.160Z,99868.78
2022-12-31T16:12:57.243Z,99887.94
2022-12-31T16:15:37.794Z,99871.47
2022-12-31T16:18:22.842Z,99882.13
2022-12-31T16:21:04.159Z,99883.63
2022-12-31T16:23:42.488Z,99864.38
2022-12-31T16:29:42.617Z,99883.00
2022-12-31T16:32:23.343Z,99858.50
2022-12-31T16:35:23.028Z,99883.22
2022-12-31T16:38:42.130Z,99870.06
2022-12-31T16:44:40.585Z,99850.06
2022-12-31T16:47:39.530Z,99869.25
2022-12-31T16:50:25.215Z,99820.19
2022-12-31T16:53:21.710Z,99886.38
2022-12-31T16:56:48.782Z,99888.41
2022-12-31T16:59:38.157Z,99821.53
2022-12-31T17:05:37.485Z,99869.72
2022-12-31T17:08:34.348Z,99891.28
2022-12-31T17:11:23.961Z,99891.03
2022-12-31T17:14:04.760Z,99828.44
2022-12-31T17:16:43.955Z,99876.91
2022-12-31T17:22:56.395Z,99874.19
2022-12-31T17:25:37.283Z,99871.56
2022-12-31T17:28:25.645Z,99861.81
2022-12-31T17:31:05.772Z,99842.25
2022-12-31T17:33:45.107Z,99851.66
2022-12-31T17:36:50.505Z,99827.22
2022-12-31T17:39:45.021Z,99826.22
2022-12-31T17:42:39.973Z,99846.81
2022-12-31T17:45:24.536Z,99761.56
2022-12-31T17:48:11.818Z,99840.97
2022-12-31T17:51:01.248Z,99842.44
2022-12-31T17:54:02.008Z,99847.38
2022-12-31T17:56:34.864Z,99849.09
2022-12-31T17:59:12.683Z,99827.94
2022-12-31T18:01:53.776Z,99845.84
2022-12-31T18:04:40.083Z,99843.81
2022-12-31T18:07:27.202Z,99847.72
2022-12-31T18:10:05.577Z,99839.03
2022-12-31T18:12:43.505Z,99772.00
2022-12-31T18:15:32.137Z,99839.94
2022-12-31T18:18:10.427Z,99800.09
2022-12-31T18:20:52.916Z,99840.50
2022-12-31T18:23:32.561Z,99732.47
2022-12-31T18:26:11.970Z,99851.84
2022-12-31T18:28:53.994Z,99839.19
2022-12-31T18:31:43.773Z,99828.41
2022-12-31T18:34:21.546Z,99821.97
2022-12-31T18:37:05.702Z,99818.09
2022-12-31T18:39:41.608Z,99824.25
2022-12-31T18:42:43.140Z,99756.22
2022-12-31T18:45:25.679Z,99759.09
2022-12-31T18:48:14.352Z,99787.31
2022-12-31T18:51:01.582Z,99788.59
2022-12-31T18:53:47.240Z,99805.44
2022-12-31T18:56:26.306Z,99740.81
2022-12-31T18:59:19.867Z,99794.38
2022-12-31T19:01:56.355Z,99778.25
2022-12-31T19:04:44.937Z,99796.69
2022-12-31T19:07:25.383Z,99795.19
2022-12-31T19:10:30.456Z,99796.78
2022-12-31T19:13:12.775Z,99799.22
2022-12-31T19:15:50.073Z,99796.66
2022-12-31T19:21:31.171Z,99723.47
2022-12-31T19:24:18.384Z,99798.09
2022-12-31T19:27:01.867Z,99800.66
2022-12-31T19:29:50.626Z,99795.56
2022-12-31T19:32:27.572Z,99794.47
2022-12-31T19:35:07.355Z,99801.75
2022-12-31T19:37:40.167Z,99788.34
2022-12-31T19:40:19.096Z,99765.91
2022-12-31T19:43:00.260Z,99792.78
2022-12-31T19:45:54.374Z,99773.69
2022-12-31T19:48:52.349Z,99729.56
2022-12-31T19:51:29.062Z,99780.75
2022-12-31T19:54:18.404Z,99787.81
2022-12-31T19:56:56.550Z,99786.09
2022-12-31T19:59:47.421Z,99775.41
2022-12-31T20:02:21.890Z,99787.22
2022-12-31T20:08:35.128Z,99772.38
2022-12-31T20:11:14.451Z,99784.09
2022-12-31T20:14:13.419Z,99776.75
2022-12-31T20:17:00.787Z,99782.03
2022-12-31T20:19:36.936Z,99767.63
2022-12-31T20:22:24.720Z,99757.50
2022-12-31T20:25:10.624Z,99781.38
2022-12-31T20:27:54.174Z,99770.44
2022-12-31T20:30:35.704Z,99768.66
2022-12-31T20:33:19.007Z,99768.13
2022-12-31T20:36:23.190Z,99760.78
2022-12-31T20:39:25.337Z,99760.28
2022-12-31T20:42:12.982Z,99717.31
2022-12-31T20:44:59.180Z,99759.06
2022-12-31T20:47:46.891Z,99757.19
2022-12-31T20:50:33.063Z,99763.41
2022-12-31T20:53:18.235Z,99759.06
2022-12-31T20:56:20.929Z,99768.19
2022-12-31T20:59:31.735Z,99734.06
2022-12-31T21:02:21.527Z,99743.72
2022-12-31T21:04:58.187Z,99754.16
2022-12-31T21:07:39.901Z,99754.00
2022-12-31T21:10:32.867Z,99742.59
2022-12-31T21:13:45.996Z,99750.41
2022-12-31T21:16:29.336Z,99758.72
2022-12-31T21:19:11.782Z,99733.50
2022-12-31T21:21:55.888Z,99748.13
2022-12-31T21:24:30.547Z,99736.56
2022-12-31T21:27:05.587Z,99748.41
2022-12-31T21:30:17.827Z,99745.19
2022-12-31T21:33:06.084Z,99736.09
2022-12-31T21:35:53.277Z,99755.34
2022-12-31T21:38:38.391Z,99769.38
2022-12-31T21:41:35.040Z,99763.88
2022-12-31T21:44:10.723Z,99757.53
2022-12-31T21:47:33.149Z,99759.13
2022-12-31T21:49:55.490Z,99768.44
2022-12-31T21:52:47.154Z,99755.94
2022-12-31T21:55:34.304Z,99744.13
2022-12-31T21:58:27.418Z,99753.34
2022-12-31T22:01:40.970Z,99749.31
2022-12-31T22:05:00.230Z,99757.56
2022-12-31T22:10:22.283Z,99767.00
2022-12-31T22:13:15.378Z,99768.00
2022-12-31T22:15:48.208Z,99768.31
2022-12-31T22:18:43.024Z,99776.13
2022-12-31T22:21:24.923Z,99777.81
2022-12-31T22:24:09.385Z,99779.03
2022-12-31T22:26:47.579Z,99781.19
2022-12-31T22:29:48.049Z,99769.22
2022-12-31T22:32:23.866Z,99788.44
2022-12-31T22:35:13.199Z,99777.34
2022-12-31T22:38:18.667Z,99786.28
2022-12-31T22:40:54.415Z,99786.28
2022-12-31T22:43:41.886Z,99779.81
2022-12-31T22:46:37.625Z,99782.91
2022-12-31T22:49:56.809Z,99785.03
2022-12-31T22:52:28.930Z,99738.09
2022-12-31T22:55:13.719Z,99785.31
2022-12-31T22:57:49.692Z,99785.84
2022-12-31T23:03:35.257Z,99788.81
2022-12-31T23:06:26.644Z,99785.19
2022-12-31T23:09:14.570Z,99788.53
2022-12-31T23:11:51.818Z,99788.59
2022-12-31T23:14:42.474Z,99788.44
2022-12-31T23:17:40.109Z,99764.88
2022-12-31T23:20:36.280Z,99793.06
2022-12-31T23:23:16.177Z,99796.78
2022-12-31T23:25:53.005Z,99803.50
2022-12-31T23:31:40.519Z,99786.78
2022-12-31T23:34:34.758Z,99788.09
2022-12-31T23:37:09.758Z,99778.69
2022-12-31T23:39:49.196Z,99782.06
2022-12-31T23:42:24.883Z,99787.53
2022-12-31T23:45:06.541Z,99778.53
2022-12-31T23:47:48.917Z,99793.00
2022-12-31T23:50:27.206Z,99791.66
2022-12-31T23:53:11.239Z,99744.13
2022-12-31T23:55:58.146Z,99795.16
2022-12-31T23:58:36.317Z,99782.38
